sensor_id;sensor_type;location;lat;lon;timestamp;P1;durP1;ratioP1;P2;durP2;ratioP2
60233;SDS011;49514;43.538;-5.708;2023-07-13T00:00:17;8.70;;;1.80;;
60233;SDS011;49514;43.538;-5.708;2023-07-13T00:02:44;6.75;;;1.63;;
60233;SDS011;49514;43.538;-5.708;2023-07-13T00:05:11;7.80;;;1.55;;
60233;SDS011;49514;43.538;-5.708;2023-07-13T00:07:38;8.27;;;2.10;;
60233;SDS011;49514;43.538;-5.708;2023-07-13T00:10:05;6.57;;;1.50;;
60233;SDS011;49514;43.538;-5.708;2023-07-13T00:12:34;4.45;;;1.23;;
60233;SDS011;49514;43.538;-5.708;2023-07-13T00:15:02;5.75;;;1.30;;
60233;SDS011;49514;43.538;-5.708;2023-07-13T00:17:29;4.23;;;1.17;;
60233;SDS011;49514;43.538;-5.708;2023-07-13T00:19:56;5.45;;;1.20;;
60233;SDS011;49514;43.538;-5.708;2023-07-13T00:22:24;4.93;;;1.52;;
60233;SDS011;49514;43.538;-5.708;2023-07-13T00:24:52;5.82;;;1.73;;
60233;SDS011;49514;43.538;-5.708;2023-07-13T00:27:19;12.30;;;4.75;;
60233;SDS011;49514;43.538;-5.708;2023-07-13T00:29:46;12.80;;;4.88;;
60233;SDS011;49514;43.538;-5.708;2023-07-13T00:32:13;11.30;;;3.92;;
60233;SDS011;49514;43.538;-5.708;2023-07-13T00:34:40;10.23;;;2.90;;
60233;SDS011;49514;43.538;-5.708;2023-07-13T00:37:07;10.18;;;2.67;;
60233;SDS011;49514;43.538;-5.708;2023-07-13T00:39:34;11.13;;;2.80;;
60233;SDS011;49514;43.538;-5.708;2023-07-13T00:42:02;11.40;;;2.50;;
60233;SDS011;49514;43.538;-5.708;2023-07-13T00:44:30;9.70;;;2.28;;
60233;SDS011;49514;43.538;-5.708;2023-07-13T00:46:57;7.93;;;2.60;;
60233;SDS011;49514;43.538;-5.708;2023-07-13T00:49:25;7.97;;;2.23;;
60233;SDS011;49514;43.538;-5.708;2023-07-13T00:51:58;13.00;;;3.55;;
60233;SDS011;49514;43.538;-5.708;2023-07-13T00:54:28;11.77;;;3.00;;
60233;SDS011;49514;43.538;-5.708;2023-07-13T00:56:57;14.20;;;3.03;;
60233;SDS011;49514;43.538;-5.708;2023-07-13T00:59:28;15.30;;;3.65;;
60233;SDS011;49514;43.538;-5.708;2023-07-13T01:01:55;31.02;;;4.95;;
60233;SDS011;49514;43.538;-5.708;2023-07-13T01:04:25;54.53;;;6.57;;
60233;SDS011;49514;43.538;-5.708;2023-07-13T01:06:52;54.35;;;6.15;;
60233;SDS011;49514;43.538;-5.708;2023-07-13T01:09:21;33.15;;;5.15;;
60233;SDS011;49514;43.538;-5.708;2023-07-13T01:11:49;33.90;;;5.63;;
60233;SDS011;49514;43.538;-5.708;2023-07-13T01:14:17;25.52;;;4.30;;
60233;SDS011;49514;43.538;-5.708;2023-07-13T01:16:44;18.73;;;4.50;;
60233;SDS011;49514;43.538;-5.708;2023-07-13T01:22:02;41.00;;;5.88;;
60233;SDS011;49514;43.538;-5.708;2023-07-13T01:24:29;34.20;;;6.93;;
60233;SDS011;49514;43.538;-5.708;2023-07-13T01:26:57;35.65;;;6.03;;
60233;SDS011;49514;43.538;-5.708;2023-07-13T01:29:23;45.43;;;7.43;;
60233;SDS011;49514;43.538;-5.708;2023-07-13T01:31:50;68.97;;;7.33;;
60233;SDS011;49514;43.538;-5.708;2023-07-13T01:34:17;46.53;;;5.50;;
60233;SDS011;49514;43.538;-5.708;2023-07-13T01:36:44;49.67;;;6.60;;
60233;SDS011;49514;43.538;-5.708;2023-07-13T01:39:11;54.97;;;6.47;;
60233;SDS011;49514;43.538;-5.708;2023-07-13T01:41:38;49.53;;;6.03;;
60233;SDS011;49514;43.538;-5.708;2023-07-13T01:44:05;32.58;;;4.45;;
60233;SDS011;49514;43.538;-5.708;2023-07-13T01:46:32;27.38;;;4.20;;
60233;SDS011;49514;43.538;-5.708;2023-07-13T01:48:59;25.95;;;4.10;;
60233;SDS011;49514;43.538;-5.708;2023-07-13T01:51:26;21.90;;;4.20;;
60233;SDS011;49514;43.538;-5.708;2023-07-13T01:53:52;21.20;;;5.03;;
60233;SDS011;49514;43.538;-5.708;2023-07-13T01:56:19;15.02;;;4.30;;
60233;SDS011;49514;43.538;-5.708;2023-07-13T01:58:46;10.70;;;4.33;;
60233;SDS011;49514;43.538;-5.708;2023-07-13T02:01:14;8.73;;;3.42;;
60233;SDS011;49514;43.538;-5.708;2023-07-13T02:03:40;9.10;;;3.50;;
60233;SDS011;49514;43.538;-5.708;2023-07-13T02:06:07;10.57;;;3.50;;
60233;SDS011;49514;43.538;-5.708;2023-07-13T02:08:34;7.43;;;3.53;;
60233;SDS011;49514;43.538;-5.708;2023-07-13T02:11:02;7.90;;;3.58;;
60233;SDS011;49514;43.538;-5.708;2023-07-13T02:13:29;7.93;;;3.97;;
60233;SDS011;49514;43.538;-5.708;2023-07-13T02:15:56;10.27;;;4.50;;
60233;SDS011;49514;43.538;-5.708;2023-07-13T02:18:23;9.52;;;5.00;;
60233;SDS011;49514;43.538;-5.708;2023-07-13T02:20:50;10.15;;;5.00;;
60233;SDS011;49514;43.538;-5.708;2023-07-13T02:23:17;10.52;;;5.05;;
60233;SDS011;49514;43.538;-5.708;2023-07-13T02:25:46;10.77;;;5.47;;
60233;SDS011;49514;43.538;-5.708;2023-07-13T02:28:15;12.10;;;5.80;;
60233;SDS011;49514;43.538;-5.708;2023-07-13T02:30:42;13.75;;;6.20;;
60233;SDS011;49514;43.538;-5.708;2023-07-13T02:33:08;14.13;;;6.55;;
60233;SDS011;49514;43.538;-5.708;2023-07-13T02:35:36;14.23;;;6.53;;
60233;SDS011;49514;43.538;-5.708;2023-07-13T02:38:02;11.80;;;6.50;;
60233;SDS011;49514;43.538;-5.708;2023-07-13T02:40:30;13.17;;;6.70;;
60233;SDS011;49514;43.538;-5.708;2023-07-13T02:42:59;12.57;;;6.33;;
60233;SDS011;49514;43.538;-5.708;2023-07-13T02:45:26;12.77;;;6.30;;
60233;SDS011;49514;43.538;-5.708;2023-07-13T02:47:53;15.77;;;7.05;;
60233;SDS011;49514;43.538;-5.708;2023-07-13T02:50:20;14.10;;;6.88;;
60233;SDS011;49514;43.538;-5.708;2023-07-13T02:52:47;14.00;;;6.80;;
60233;SDS011;49514;43.538;-5.708;2023-07-13T02:55:13;13.23;;;7.00;;
60233;SDS011;49514;43.538;-5.708;2023-07-13T02:57:41;15.63;;;7.10;;
60233;SDS011;49514;43.538;-5.708;2023-07-13T03:00:07;14.25;;;7.13;;
60233;SDS011;49514;43.538;-5.708;2023-07-13T03:02:35;14.00;;;6.53;;
60233;SDS011;49514;43.538;-5.708;2023-07-13T03:05:02;14.18;;;6.53;;
60233;SDS011;49514;43.538;-5.708;2023-07-13T03:07:29;15.07;;;6.80;;
60233;SDS011;49514;43.538;-5.708;2023-07-13T03:09:57;16.95;;;7.20;;
60233;SDS011;49514;43.538;-5.708;2023-07-13T03:12:31;16.73;;;6.85;;
60233;SDS011;49514;43.538;-5.708;2023-07-13T03:14:57;13.30;;;6.60;;
60233;SDS011;49514;43.538;-5.708;2023-07-13T03:17:25;18.70;;;7.00;;
60233;SDS011;49514;43.538;-5.708;2023-07-13T03:19:52;15.00;;;6.47;;
60233;SDS011;49514;43.538;-5.708;2023-07-13T03:22:19;16.15;;;7.03;;
60233;SDS011;49514;43.538;-5.708;2023-07-13T03:24:45;12.90;;;5.78;;
60233;SDS011;49514;43.538;-5.708;2023-07-13T03:27:12;13.07;;;6.10;;
60233;SDS011;49514;43.538;-5.708;2023-07-13T03:29:42;15.27;;;6.57;;
60233;SDS011;49514;43.538;-5.708;2023-07-13T03:32:11;13.50;;;6.35;;
60233;SDS011;49514;43.538;-5.708;2023-07-13T03:34:38;13.43;;;6.70;;
60233;SDS011;49514;43.538;-5.708;2023-07-13T03:37:05;12.55;;;6.32;;
60233;SDS011;49514;43.538;-5.708;2023-07-13T03:39:32;12.00;;;6.13;;
60233;SDS011;49514;43.538;-5.708;2023-07-13T03:41:59;11.20;;;5.70;;
60233;SDS011;49514;43.538;-5.708;2023-07-13T03:44:27;11.53;;;5.57;;
60233;SDS011;49514;43.538;-5.708;2023-07-13T03:46:56;12.93;;;5.93;;
60233;SDS011;49514;43.538;-5.708;2023-07-13T03:49:23;15.98;;;6.10;;
60233;SDS011;49514;43.538;-5.708;2023-07-13T03:51:50;12.07;;;5.97;;
60233;SDS011;49514;43.538;-5.708;2023-07-13T03:54:16;13.00;;;6.10;;
60233;SDS011;49514;43.538;-5.708;2023-07-13T03:56:44;11.05;;;5.97;;
60233;SDS011;49514;43.538;-5.708;2023-07-13T03:59:11;11.85;;;6.10;;
60233;SDS011;49514;43.538;-5.708;2023-07-13T04:01:38;14.68;;;7.13;;
60233;SDS011;49514;43.538;-5.708;2023-07-13T04:04:05;12.48;;;6.20;;
60233;SDS011;49514;43.538;-5.708;2023-07-13T04:06:32;13.77;;;6.38;;
60233;SDS011;49514;43.538;-5.708;2023-07-13T04:09:00;12.88;;;6.38;;
60233;SDS011;49514;43.538;-5.708;2023-07-13T04:11:28;14.65;;;6.85;;
60233;SDS011;49514;43.538;-5.708;2023-07-13T04:13:56;13.38;;;6.50;;
60233;SDS011;49514;43.538;-5.708;2023-07-13T04:16:23;14.63;;;6.60;;
60233;SDS011;49514;43.538;-5.708;2023-07-13T04:18:50;14.40;;;7.33;;
60233;SDS011;49514;43.538;-5.708;2023-07-13T04:21:20;15.30;;;7.07;;
60233;SDS011;49514;43.538;-5.708;2023-07-13T04:23:47;16.38;;;8.02;;
60233;SDS011;49514;43.538;-5.708;2023-07-13T04:26:14;18.93;;;8.30;;
60233;SDS011;49514;43.538;-5.708;2023-07-13T04:28:41;17.53;;;8.00;;
60233;SDS011;49514;43.538;-5.708;2023-07-13T04:31:09;17.38;;;7.50;;
60233;SDS011;49514;43.538;-5.708;2023-07-13T04:33:35;16.55;;;6.53;;
60233;SDS011;49514;43.538;-5.708;2023-07-13T04:36:02;18.98;;;6.45;;
60233;SDS011;49514;43.538;-5.708;2023-07-13T04:38:30;11.70;;;5.82;;
60233;SDS011;49514;43.538;-5.708;2023-07-13T04:41:02;12.35;;;5.65;;
60233;SDS011;49514;43.538;-5.708;2023-07-13T04:43:29;12.90;;;5.82;;
60233;SDS011;49514;43.538;-5.708;2023-07-13T04:45:56;11.02;;;5.68;;
60233;SDS011;49514;43.538;-5.708;2023-07-13T04:48:23;12.40;;;5.53;;
60233;SDS011;49514;43.538;-5.708;2023-07-13T04:50:54;13.38;;;5.63;;
60233;SDS011;49514;43.538;-5.708;2023-07-13T04:53:21;11.57;;;5.80;;
60233;SDS011;49514;43.538;-5.708;2023-07-13T04:55:48;10.88;;;5.13;;
60233;SDS011;49514;43.538;-5.708;2023-07-13T04:58:15;15.63;;;5.20;;
60233;SDS011;49514;43.538;-5.708;2023-07-13T05:00:42;11.82;;;5.10;;
60233;SDS011;49514;43.538;-5.708;2023-07-13T05:03:09;12.15;;;5.43;;
60233;SDS011;49514;43.538;-5.708;2023-07-13T05:05:35;12.60;;;5.27;;
60233;SDS011;49514;43.538;-5.708;2023-07-13T05:08:02;15.15;;;5.85;;
60233;SDS011;49514;43.538;-5.708;2023-07-13T05:10:29;14.13;;;5.78;;
60233;SDS011;49514;43.538;-5.708;2023-07-13T05:12:56;13.70;;;5.70;;
60233;SDS011;49514;43.538;-5.708;2023-07-13T05:15:23;14.17;;;5.00;;
60233;SDS011;49514;43.538;-5.708;2023-07-13T05:17:51;15.75;;;5.35;;
60233;SDS011;49514;43.538;-5.708;2023-07-13T05:20:18;15.98;;;5.35;;
60233;SDS011;49514;43.538;-5.708;2023-07-13T05:22:45;14.73;;;5.07;;
60233;SDS011;49514;43.538;-5.708;2023-07-13T05:25:13;15.37;;;5.30;;
60233;SDS011;49514;43.538;-5.708;2023-07-13T05:27:40;13.70;;;5.63;;
60233;SDS011;49514;43.538;-5.708;2023-07-13T05:30:07;15.05;;;6.53;;
60233;SDS011;49514;43.538;-5.708;2023-07-13T05:32:36;14.43;;;7.63;;
60233;SDS011;49514;43.538;-5.708;2023-07-13T05:35:03;19.35;;;9.90;;
60233;SDS011;49514;43.538;-5.708;2023-07-13T05:37:30;21.57;;;11.77;;
60233;SDS011;49514;43.538;-5.708;2023-07-13T05:39:57;21.55;;;11.77;;
60233;SDS011;49514;43.538;-5.708;2023-07-13T05:42:24;21.77;;;10.40;;
60233;SDS011;49514;43.538;-5.708;2023-07-13T05:44:51;25.90;;;12.25;;
60233;SDS011;49514;43.538;-5.708;2023-07-13T05:47:18;21.67;;;11.53;;
60233;SDS011;49514;43.538;-5.708;2023-07-13T05:49:45;19.48;;;10.30;;
60233;SDS011;49514;43.538;-5.708;2023-07-13T05:52:12;22.00;;;10.68;;
60233;SDS011;49514;43.538;-5.708;2023-07-13T05:54:38;24.00;;;11.50;;
60233;SDS011;49514;43.538;-5.708;2023-07-13T05:57:05;24.30;;;10.95;;
60233;SDS011;49514;43.538;-5.708;2023-07-13T05:59:32;17.42;;;8.45;;
60233;SDS011;49514;43.538;-5.708;2023-07-13T06:01:59;15.35;;;7.60;;
60233;SDS011;49514;43.538;-5.708;2023-07-13T06:04:26;16.93;;;7.03;;
60233;SDS011;49514;43.538;-5.708;2023-07-13T06:06:53;11.88;;;6.03;;
60233;SDS011;49514;43.538;-5.708;2023-07-13T06:09:20;9.80;;;5.10;;
60233;SDS011;49514;43.538;-5.708;2023-07-13T06:11:47;9.50;;;4.95;;
60233;SDS011;49514;43.538;-5.708;2023-07-13T06:14:14;11.82;;;4.90;;
60233;SDS011;49514;43.538;-5.708;2023-07-13T06:16:41;14.73;;;5.73;;
60233;SDS011;49514;43.538;-5.708;2023-07-13T06:19:08;14.40;;;5.50;;
60233;SDS011;49514;43.538;-5.708;2023-07-13T06:21:35;15.88;;;5.40;;
60233;SDS011;49514;43.538;-5.708;2023-07-13T06:24:02;14.20;;;5.22;;
60233;SDS011;49514;43.538;-5.708;2023-07-13T06:26:29;14.73;;;5.65;;
60233;SDS011;49514;43.538;-5.708;2023-07-13T06:28:56;13.43;;;5.30;;
60233;SDS011;49514;43.538;-5.708;2023-07-13T06:31:22;13.70;;;4.90;;
60233;SDS011;49514;43.538;-5.708;2023-07-13T06:33:49;14.77;;;5.25;;
60233;SDS011;49514;43.538;-5.708;2023-07-13T06:36:16;15.07;;;5.75;;
60233;SDS011;49514;43.538;-5.708;2023-07-13T06:38:43;14.40;;;5.63;;
60233;SDS011;49514;43.538;-5.708;2023-07-13T06:41:10;25.65;;;6.28;;
60233;SDS011;49514;43.538;-5.708;2023-07-13T06:43:37;18.10;;;6.20;;
60233;SDS011;49514;43.538;-5.708;2023-07-13T06:46:04;13.43;;;6.00;;
60233;SDS011;49514;43.538;-5.708;2023-07-13T06:48:31;16.58;;;6.38;;
60233;SDS011;49514;43.538;-5.708;2023-07-13T06:50:57;19.85;;;6.60;;
60233;SDS011;49514;43.538;-5.708;2023-07-13T06:53:24;18.17;;;6.95;;
60233;SDS011;49514;43.538;-5.708;2023-07-13T06:55:51;14.40;;;5.45;;
60233;SDS011;49514;43.538;-5.708;2023-07-13T06:58:19;13.98;;;5.60;;
60233;SDS011;49514;43.538;-5.708;2023-07-13T07:00:46;15.30;;;5.67;;
60233;SDS011;49514;43.538;-5.708;2023-07-13T07:03:13;15.65;;;6.50;;
60233;SDS011;49514;43.538;-5.708;2023-07-13T07:05:39;15.65;;;7.00;;
60233;SDS011;49514;43.538;-5.708;2023-07-13T07:08:06;25.98;;;9.25;;
60233;SDS011;49514;43.538;-5.708;2023-07-13T07:10:34;25.77;;;12.80;;
60233;SDS011;49514;43.538;-5.708;2023-07-13T07:13:02;21.83;;;10.73;;
60233;SDS011;49514;43.538;-5.708;2023-07-13T07:15:29;21.17;;;8.90;;
60233;SDS011;49514;43.538;-5.708;2023-07-13T07:17:56;15.98;;;7.50;;
60233;SDS011;49514;43.538;-5.708;2023-07-13T07:20:23;13.93;;;7.43;;
60233;SDS011;49514;43.538;-5.708;2023-07-13T07:22:50;15.60;;;5.53;;
60233;SDS011;49514;43.538;-5.708;2023-07-13T07:25:17;7.18;;;2.10;;
60233;SDS011;49514;43.538;-5.708;2023-07-13T07:27:44;6.95;;;2.10;;
60233;SDS011;49514;43.538;-5.708;2023-07-13T07:30:11;5.55;;;2.03;;
60233;SDS011;49514;43.538;-5.708;2023-07-13T07:32:38;7.18;;;1.58;;
60233;SDS011;49514;43.538;-5.708;2023-07-13T07:35:05;5.80;;;1.37;;
60233;SDS011;49514;43.538;-5.708;2023-07-13T07:37:32;4.67;;;1.53;;
60233;SDS011;49514;43.538;-5.708;2023-07-13T07:39:59;5.18;;;1.63;;
60233;SDS011;49514;43.538;-5.708;2023-07-13T07:42:26;5.10;;;1.52;;
60233;SDS011;49514;43.538;-5.708;2023-07-13T07:44:53;4.90;;;1.60;;
60233;SDS011;49514;43.538;-5.708;2023-07-13T07:47:20;4.60;;;1.50;;
60233;SDS011;49514;43.538;-5.708;2023-07-13T07:49:48;5.60;;;1.60;;
60233;SDS011;49514;43.538;-5.708;2023-07-13T07:52:15;5.45;;;1.25;;
60233;SDS011;49514;43.538;-5.708;2023-07-13T07:54:42;3.15;;;1.10;;
60233;SDS011;49514;43.538;-5.708;2023-07-13T07:57:09;4.95;;;1.27;;
60233;SDS011;49514;43.538;-5.708;2023-07-13T07:59:36;4.90;;;1.50;;
60233;SDS011;49514;43.538;-5.708;2023-07-13T08:02:04;4.10;;;1.00;;
60233;SDS011;49514;43.538;-5.708;2023-07-13T08:04:31;3.58;;;1.00;;
60233;SDS011;49514;43.538;-5.708;2023-07-13T08:06:58;3.37;;;0.80;;
60233;SDS011;49514;43.538;-5.708;2023-07-13T08:09:26;4.68;;;1.88;;
60233;SDS011;49514;43.538;-5.708;2023-07-13T08:11:53;3.97;;;1.10;;
60233;SDS011;49514;43.538;-5.708;2023-07-13T08:14:20;3.38;;;1.10;;
60233;SDS011;49514;43.538;-5.708;2023-07-13T08:16:47;2.77;;;0.90;;
60233;SDS011;49514;43.538;-5.708;2023-07-13T08:19:15;3.22;;;0.90;;
60233;SDS011;49514;43.538;-5.708;2023-07-13T08:21:42;4.50;;;0.90;;
60233;SDS011;49514;43.538;-5.708;2023-07-13T08:24:09;9.38;;;1.67;;
60233;SDS011;49514;43.538;-5.708;2023-07-13T08:26:36;3.33;;;1.13;;
60233;SDS011;49514;43.538;-5.708;2023-07-13T08:29:03;5.93;;;1.30;;
60233;SDS011;49514;43.538;-5.708;2023-07-13T08:31:30;3.67;;;1.20;;
60233;SDS011;49514;43.538;-5.708;2023-07-13T08:33:57;3.22;;;1.20;;
60233;SDS011;49514;43.538;-5.708;2023-07-13T08:36:25;2.63;;;1.00;;
60233;SDS011;49514;43.538;-5.708;2023-07-13T08:38:53;4.47;;;1.10;;
60233;SDS011;49514;43.538;-5.708;2023-07-13T08:41:20;4.00;;;1.10;;
60233;SDS011;49514;43.538;-5.708;2023-07-13T08:43:48;3.33;;;1.27;;
60233;SDS011;49514;43.538;-5.708;2023-07-13T08:46:19;4.25;;;1.13;;
60233;SDS011;49514;43.538;-5.708;2023-07-13T08:48:51;5.35;;;1.00;;
60233;SDS011;49514;43.538;-5.708;2023-07-13T08:53:47;3.30;;;0.90;;
60233;SDS011;49514;43.538;-5.708;2023-07-13T08:56:27;4.97;;;1.00;;
60233;SDS011;49514;43.538;-5.708;2023-07-13T08:58:56;2.38;;;0.88;;
60233;SDS011;49514;43.538;-5.708;2023-07-13T09:02:14;3.67;;;0.90;;
60233;SDS011;49514;43.538;-5.708;2023-07-13T09:04:18;2.22;;;0.75;;
60233;SDS011;49514;43.538;-5.708;2023-07-13T09:09:19;2.73;;;0.90;;
60233;SDS011;49514;43.538;-5.708;2023-07-13T09:11:54;2.97;;;0.90;;
60233;SDS011;49514;43.538;-5.708;2023-07-13T09:16:50;2.20;;;0.80;;
60233;SDS011;49514;43.538;-5.708;2023-07-13T09:19:21;3.60;;;0.90;;
60233;SDS011;49514;43.538;-5.708;2023-07-13T09:21:49;3.40;;;0.97;;
60233;SDS011;49514;43.538;-5.708;2023-07-13T09:24:37;6.13;;;1.10;;
60233;SDS011;49514;43.538;-5.708;2023-07-13T09:27:18;2.78;;;0.98;;
60233;SDS011;49514;43.538;-5.708;2023-07-13T09:29:51;3.38;;;0.93;;
60233;SDS011;49514;43.538;-5.708;2023-07-13T09:32:21;6.43;;;0.90;;
60233;SDS011;49514;43.538;-5.708;2023-07-13T09:34:51;4.03;;;0.93;;
60233;SDS011;49514;43.538;-5.708;2023-07-13T09:37:19;3.00;;;0.90;;
60233;SDS011;49514;43.538;-5.708;2023-07-13T09:39:47;3.20;;;0.73;;
60233;SDS011;49514;43.538;-5.708;2023-07-13T09:42:16;4.15;;;0.80;;
60233;SDS011;49514;43.538;-5.708;2023-07-13T09:44:54;3.13;;;0.90;;
60233;SDS011;49514;43.538;-5.708;2023-07-13T09:47:28;2.83;;;0.80;;
60233;SDS011;49514;43.538;-5.708;2023-07-13T09:49:59;3.27;;;0.90;;
60233;SDS011;49514;43.538;-5.708;2023-07-13T09:52:27;3.17;;;1.00;;
60233;SDS011;49514;43.538;-5.708;2023-07-13T09:54:54;4.03;;;1.00;;
60233;SDS011;49514;43.538;-5.708;2023-07-13T09:57:27;3.83;;;1.00;;
60233;SDS011;49514;43.538;-5.708;2023-07-13T09:59:55;2.92;;;0.85;;
60233;SDS011;49514;43.538;-5.708;2023-07-13T10:02:29;5.43;;;0.80;;
60233;SDS011;49514;43.538;-5.708;2023-07-13T10:07:25;3.33;;;1.30;;
60233;SDS011;49514;43.538;-5.708;2023-07-13T10:09:53;3.35;;;1.10;;
60233;SDS011;49514;43.538;-5.708;2023-07-13T10:12:20;3.63;;;0.90;;
60233;SDS011;49514;43.538;-5.708;2023-07-13T10:14:54;3.25;;;0.82;;
60233;SDS011;49514;43.538;-5.708;2023-07-13T10:17:29;2.17;;;0.70;;
60233;SDS011;49514;43.538;-5.708;2023-07-13T10:20:04;3.58;;;0.80;;
60233;SDS011;49514;43.538;-5.708;2023-07-13T10:25:16;2.67;;;0.65;;
60233;SDS011;49514;43.538;-5.708;2023-07-13T10:27:44;3.80;;;0.80;;
60233;SDS011;49514;43.538;-5.708;2023-07-13T10:30:27;2.72;;;0.82;;
60233;SDS011;49514;43.538;-5.708;2023-07-13T10:32:57;2.42;;;0.77;;
60233;SDS011;49514;43.538;-5.708;2023-07-13T10:35:24;2.90;;;0.80;;
60233;SDS011;49514;43.538;-5.708;2023-07-13T10:37:57;1.93;;;0.60;;
60233;SDS011;49514;43.538;-5.708;2023-07-13T10:40:28;4.40;;;0.70;;
60233;SDS011;49514;43.538;-5.708;2023-07-13T10:42:59;2.42;;;0.70;;
60233;SDS011;49514;43.538;-5.708;2023-07-13T10:45:27;2.57;;;0.90;;
60233;SDS011;49514;43.538;-5.708;2023-07-13T10:47:57;2.45;;;0.70;;
60233;SDS011;49514;43.538;-5.708;2023-07-13T10:50:25;3.53;;;0.73;;
60233;SDS011;49514;43.538;-5.708;2023-07-13T10:52:53;4.55;;;0.70;;
60233;SDS011;49514;43.538;-5.708;2023-07-13T11:00:48;2.38;;;0.80;;
60233;SDS011;49514;43.538;-5.708;2023-07-13T11:03:17;4.47;;;0.90;;
60233;SDS011;49514;43.538;-5.708;2023-07-13T11:05:47;3.43;;;0.73;;
60233;SDS011;49514;43.538;-5.708;2023-07-13T11:10:56;3.70;;;0.75;;
60233;SDS011;49514;43.538;-5.708;2023-07-13T11:13:36;2.72;;;0.80;;
60233;SDS011;49514;43.538;-5.708;2023-07-13T11:16:13;3.30;;;0.70;;
60233;SDS011;49514;43.538;-5.708;2023-07-13T11:21:29;3.55;;;0.80;;
60233;SDS011;49514;43.538;-5.708;2023-07-13T11:24:17;4.90;;;0.80;;
60233;SDS011;49514;43.538;-5.708;2023-07-13T11:31:54;3.60;;;0.80;;
60233;SDS011;49514;43.538;-5.708;2023-07-13T11:34:23;2.70;;;0.70;;
60233;SDS011;49514;43.538;-5.708;2023-07-13T11:36:53;4.57;;;0.90;;
60233;SDS011;49514;43.538;-5.708;2023-07-13T11:39:21;3.17;;;0.75;;
60233;SDS011;49514;43.538;-5.708;2023-07-13T11:41:51;2.45;;;0.75;;
60233;SDS011;49514;43.538;-5.708;2023-07-13T11:44:19;3.03;;;0.70;;
60233;SDS011;49514;43.538;-5.708;2023-07-13T11:46:51;3.40;;;0.73;;
60233;SDS011;49514;43.538;-5.708;2023-07-13T11:49:20;3.67;;;0.70;;
60233;SDS011;49514;43.538;-5.708;2023-07-13T11:51:47;3.65;;;0.70;;
60233;SDS011;49514;43.538;-5.708;2023-07-13T11:56:49;1.95;;;0.70;;
60233;SDS011;49514;43.538;-5.708;2023-07-13T11:59:16;4.03;;;0.80;;
60233;SDS011;49514;43.538;-5.708;2023-07-13T12:01:46;2.85;;;0.80;;
60233;SDS011;49514;43.538;-5.708;2023-07-13T12:04:21;1.83;;;0.70;;
60233;SDS011;49514;43.538;-5.708;2023-07-13T12:07:03;4.03;;;0.77;;
60233;SDS011;49514;43.538;-5.708;2023-07-13T12:09:30;5.30;;;0.77;;
60233;SDS011;49514;43.538;-5.708;2023-07-13T12:11:57;3.27;;;0.80;;
60233;SDS011;49514;43.538;-5.708;2023-07-13T12:14:26;5.60;;;0.90;;
60233;SDS011;49514;43.538;-5.708;2023-07-13T12:16:56;6.38;;;0.75;;
60233;SDS011;49514;43.538;-5.708;2023-07-13T12:19:25;2.93;;;0.80;;
60233;SDS011;49514;43.538;-5.708;2023-07-13T12:21:54;2.38;;;0.75;;
60233;SDS011;49514;43.538;-5.708;2023-07-13T12:24:22;3.33;;;0.70;;
60233;SDS011;49514;43.538;-5.708;2023-07-13T12:27:02;4.22;;;0.98;;
60233;SDS011;49514;43.538;-5.708;2023-07-13T12:29:32;2.67;;;0.60;;
60233;SDS011;49514;43.538;-5.708;2023-07-13T12:32:01;3.35;;;0.90;;
60233;SDS011;49514;43.538;-5.708;2023-07-13T12:34:28;7.90;;;0.98;;
60233;SDS011;49514;43.538;-5.708;2023-07-13T12:36:56;2.95;;;0.80;;
60233;SDS011;49514;43.538;-5.708;2023-07-13T12:39:29;3.55;;;0.70;;
60233;SDS011;49514;43.538;-5.708;2023-07-13T12:45:01;4.93;;;0.60;;
60233;SDS011;49514;43.538;-5.708;2023-07-13T12:47:28;3.58;;;0.63;;
60233;SDS011;49514;43.538;-5.708;2023-07-13T12:49:57;3.05;;;0.75;;
60233;SDS011;49514;43.538;-5.708;2023-07-13T12:52:32;5.35;;;0.80;;
60233;SDS011;49514;43.538;-5.708;2023-07-13T12:55:07;4.07;;;0.90;;
60233;SDS011;49514;43.538;-5.708;2023-07-13T12:57:41;5.05;;;1.08;;
60233;SDS011;49514;43.538;-5.708;2023-07-13T13:00:30;4.47;;;0.88;;
60233;SDS011;49514;43.538;-5.708;2023-07-13T13:03:02;3.53;;;0.83;;
60233;SDS011;49514;43.538;-5.708;2023-07-13T13:05:30;4.13;;;0.80;;
60233;SDS011;49514;43.538;-5.708;2023-07-13T13:07:57;3.00;;;0.75;;
60233;SDS011;49514;43.538;-5.708;2023-07-13T13:10:24;2.33;;;0.60;;
60233;SDS011;49514;43.538;-5.708;2023-07-13T13:12:52;4.03;;;0.82;;
60233;SDS011;49514;43.538;-5.708;2023-07-13T13:15:19;4.20;;;0.75;;
60233;SDS011;49514;43.538;-5.708;2023-07-13T13:17:48;2.13;;;0.60;;
60233;SDS011;49514;43.538;-5.708;2023-07-13T13:20:16;3.92;;;0.70;;
60233;SDS011;49514;43.538;-5.708;2023-07-13T13:57:01;7.55;;;0.90;;
60233;SDS011;49514;43.538;-5.708;2023-07-13T13:59:28;12.07;;;1.02;;
60233;SDS011;49514;43.538;-5.708;2023-07-13T14:01:58;4.15;;;0.80;;
60233;SDS011;49514;43.538;-5.708;2023-07-13T14:04:26;3.17;;;0.70;;
60233;SDS011;49514;43.538;-5.708;2023-07-13T14:06:53;7.82;;;1.20;;
60233;SDS011;49514;43.538;-5.708;2023-07-13T14:09:20;10.82;;;1.30;;
60233;SDS011;49514;43.538;-5.708;2023-07-13T14:11:48;4.80;;;0.95;;
60233;SDS011;49514;43.538;-5.708;2023-07-13T14:14:23;6.05;;;0.70;;
60233;SDS011;49514;43.538;-5.708;2023-07-13T14:16:53;3.75;;;0.80;;
60233;SDS011;49514;43.538;-5.708;2023-07-13T14:19:22;4.60;;;0.80;;
60233;SDS011;49514;43.538;-5.708;2023-07-13T14:21:49;4.60;;;0.80;;
60233;SDS011;49514;43.538;-5.708;2023-07-13T14:24:19;3.90;;;1.00;;
60233;SDS011;49514;43.538;-5.708;2023-07-13T14:26:47;8.63;;;1.38;;
60233;SDS011;49514;43.538;-5.708;2023-07-13T14:29:17;5.03;;;1.10;;
60233;SDS011;49514;43.538;-5.708;2023-07-13T14:31:45;6.93;;;0.88;;
60233;SDS011;49514;43.538;-5.708;2023-07-13T14:34:12;4.95;;;0.95;;
60233;SDS011;49514;43.538;-5.708;2023-07-13T14:36:41;5.78;;;0.93;;
60233;SDS011;49514;43.538;-5.708;2023-07-13T14:39:14;8.20;;;1.17;;
60233;SDS011;49514;43.538;-5.708;2023-07-13T14:41:42;6.15;;;0.90;;
60233;SDS011;49514;43.538;-5.708;2023-07-13T15:08:39;2.80;;;0.60;;
60233;SDS011;49514;43.538;-5.708;2023-07-13T15:11:07;5.18;;;0.80;;
60233;SDS011;49514;43.538;-5.708;2023-07-13T15:13:33;4.97;;;0.80;;
60233;SDS011;49514;43.538;-5.708;2023-07-13T15:16:01;5.77;;;0.90;;
60233;SDS011;49514;43.538;-5.708;2023-07-13T15:18:28;4.15;;;0.85;;
60233;SDS011;49514;43.538;-5.708;2023-07-13T15:20:54;3.50;;;0.75;;
60233;SDS011;49514;43.538;-5.708;2023-07-13T15:23:23;2.42;;;0.60;;
60233;SDS011;49514;43.538;-5.708;2023-07-13T15:25:52;3.10;;;0.70;;
60233;SDS011;49514;43.538;-5.708;2023-07-13T15:28:18;3.80;;;0.90;;
60233;SDS011;49514;43.538;-5.708;2023-07-13T15:30:47;5.13;;;1.00;;
60233;SDS011;49514;43.538;-5.708;2023-07-13T15:33:25;4.93;;;0.85;;
60233;SDS011;49514;43.538;-5.708;2023-07-13T15:35:53;3.75;;;0.70;;
60233;SDS011;49514;43.538;-5.708;2023-07-13T15:38:22;5.82;;;0.90;;
60233;SDS011;49514;43.538;-5.708;2023-07-13T15:40:49;6.70;;;1.00;;
60233;SDS011;49514;43.538;-5.708;2023-07-13T15:43:17;4.88;;;0.85;;
60233;SDS011;49514;43.538;-5.708;2023-07-13T15:45:44;6.28;;;0.90;;
60233;SDS011;49514;43.538;-5.708;2023-07-13T15:48:13;7.93;;;0.90;;
60233;SDS011;49514;43.538;-5.708;2023-07-13T15:50:44;4.43;;;0.70;;
60233;SDS011;49514;43.538;-5.708;2023-07-13T15:53:14;4.93;;;0.87;;
60233;SDS011;49514;43.538;-5.708;2023-07-13T16:37:22;3.78;;;0.90;;
60233;SDS011;49514;43.538;-5.708;2023-07-13T16:39:51;6.45;;;1.00;;
60233;SDS011;49514;43.538;-5.708;2023-07-13T16:42:21;7.20;;;1.20;;
60233;SDS011;49514;43.538;-5.708;2023-07-13T16:44:48;4.20;;;1.00;;
60233;SDS011;49514;43.538;-5.708;2023-07-13T16:47:17;3.85;;;0.90;;
60233;SDS011;49514;43.538;-5.708;2023-07-13T16:49:44;6.07;;;0.90;;
60233;SDS011;49514;43.538;-5.708;2023-07-13T16:52:14;6.95;;;1.00;;